Time;durP1;ratioP1;P1;durP2;ratioP2;P2;SDS_P1;SDS_P2;PMS_P1;PMS_P2;Temp;Humidity;BMP_temperature;BMP_pressure;BME280_temperature;BME280_humidity;BME280_pressure;Samples;Min_cycle;Max_cycle;Signal;HPM_P1;HPM_P2
2022/12/17 13:06:58;;;;;;;2.70;1.42;;;1.70;30.60;;;;;;5011402;28;20244;-72
2022/12/17 13:09:27;;;;;;;2.70;1.20;;;1.70;31.00;;;;;;5008149;28;20181;-72
2022/12/17 13:12:08;;;;;;;3.35;1.83;;;1.40;31.40;;;;;;5011193;28;20696;-72
2022/12/17 13:15:07;;;;;;;3.92;1.85;;;1.30;32.10;;;;;;5011676;28;20192;-72
2022/12/17 13:17:45;;;;;;;5.07;2.85;;;0.70;33.60;;;;;;5012087;28;20628;-72
2022/12/17 13:20:28;;;;;;;3.10;1.20;;;0.60;33.50;;;;;;5012023;28;20181;-72
2022/12/17 13:23:16;;;;;;;3.20;1.30;;;0.40;34.90;;;;;;5010155;28;20550;-72
2022/12/17 13:25:41;;;;;;;4.47;2.08;;;0.70;34.50;;;;;;5005195;28;20189;-72
2022/12/17 13:28:37;;;;;;;3.30;1.50;;;2.90;35.80;;;;;;5011351;28;20181;-72
2022/12/17 13:31:12;;;;;;;3.00;1.50;;;1.90;32.20;;;;;;4969773;28;20206;-72
2022/12/17 13:34:08;;;;;;;5.60;3.08;;;2.70;30.80;;;;;;4970491;28;20162;-73
2022/12/17 13:37:09;;;;;;;4.45;2.28;;;3.10;29.30;;;;;;4969872;28;20219;-72
2022/12/17 13:39:56;;;;;;;3.30;1.77;;;3.00;29.70;;;;;;4950446;29;20183;-71
2022/12/17 13:42:28;;;;;;;4.75;1.95;;;2.70;29.90;;;;;;4968011;28;20267;-73
2022/12/17 13:44:54;;;;;;;2.83;1.73;;;2.50;30.30;;;;;;4971453;28;20179;-73
2022/12/17 13:47:26;;;;;;;2.60;1.50;;;2.30;30.50;;;;;;4969903;28;20210;-74
2022/12/17 13:49:59;;;;;;;3.20;1.52;;;2.10;30.40;;;;;;4969792;28;20250;-73
2022/12/17 13:52:26;;;;;;;5.20;3.58;;;1.90;31.30;;;;;;4970362;28;20214;-73
2022/12/17 13:54:53;;;;;;;3.22;1.65;;;1.80;31.60;;;;;;4973064;28;20265;-72
2022/12/17 13:57:21;;;;;;;4.20;1.95;;;1.70;31.90;;;;;;4972130;28;20213;-73
2022/12/17 13:59:55;;;;;;;5.53;2.60;;;1.50;32.10;;;;;;4972824;28;20183;-73
2022/12/17 14:02:31;;;;;;;2.83;1.10;;;1.60;32.50;;;;;;4973063;28;20541;-73
2022/12/17 14:05:00;;;;;;;3.25;1.58;;;1.80;32.40;;;;;;4972823;28;20220;-72
2022/12/17 14:07:29;;;;;;;3.53;1.65;;;1.80;31.90;;;;;;4992762;28;20216;-72
2022/12/17 14:09:55;;;;;;;4.00;2.05;;;1.50;32.10;;;;;;5009601;28;20177;-72
2022/12/17 14:12:25;;;;;;;4.32;2.10;;;1.30;32.70;;;;;;5014172;28;20276;-72
2022/12/17 14:14:56;;;;;;;5.88;2.80;;;1.30;32.90;;;;;;5012680;28;20649;-72
2022/12/17 14:17:45;;;;;;;5.55;2.55;;;1.20;33.20;;;;;;5014069;28;20672;-71
2022/12/17 14:20:44;;;;;;;5.68;1.92;;;1.10;33.40;;;;;;5014231;28;20182;-72
2022/12/17 14:23:30;;;;;;;4.70;2.15;;;1.00;33.70;;;;;;4971010;28;20214;-71
2022/12/17 14:25:56;;;;;;;3.75;1.45;;;0.90;34.10;;;;;;4968093;28;20701;-72
2022/12/17 14:28:29;;;;;;;13.15;3.05;;;0.80;34.50;;;;;;4972853;28;20643;-72
2022/12/17 14:31:18;;;;;;;3.70;1.33;;;0.70;34.60;;;;;;4972394;28;20449;-72
2022/12/17 14:33:45;;;;;;;7.45;2.85;;;0.60;34.50;;;;;;4972639;28;20667;-72
2022/12/17 14:36:17;;;;;;;3.60;1.20;;;0.60;34.70;;;;;;4972179;28;20285;-72
2022/12/17 14:38:58;;;;;;;3.83;1.48;;;0.50;35.20;;;;;;4972729;28;20215;-72
2022/12/17 14:44:26;;;;;;;4.60;1.70;;;0.50;35.60;;;;;;4973392;28;20289;-72
2022/12/17 14:47:10;;;;;;;5.00;2.25;;;0.50;35.50;;;;;;4972712;28;20285;-72
2022/12/17 14:49:38;;;;;;;4.78;1.85;;;0.50;35.40;;;;;;4971830;28;20209;-72
2022/12/17 14:52:13;;;;;;;3.50;1.20;;;0.60;35.30;;;;;;4972084;28;20229;-72
2022/12/17 14:54:45;;;;;;;6.38;2.10;;;0.00;35.70;;;;;;4973299;28;20731;-72
2022/12/17 14:57:20;;;;;;;6.85;3.95;;;-0.30;37.60;;;;;;4972628;28;20214;-72
2022/12/17 14:59:46;;;;;;;3.45;1.20;;;-0.10;37.20;;;;;;5008774;28;20288;-71
2022/12/17 15:02:22;;;;;;;9.43;4.60;;;-0.20;37.10;;;;;;5014389;28;20169;-72
2022/12/17 15:04:50;;;;;;;5.43;2.30;;;-0.60;38.40;;;;;;5013722;28;20446;-72
2022/12/17 15:07:25;;;;;;;4.18;2.10;;;-0.90;40.10;;;;;;5012207;28;20296;-73
2022/12/17 15:09:52;;;;;;;5.15;3.00;;;-0.50;39.30;;;;;;5014539;28;20212;-72
2022/12/17 15:12:23;;;;;;;5.25;2.33;;;-0.30;38.20;;;;;;5014645;28;20185;-72
2022/12/17 15:14:49;;;;;;;9.88;3.08;;;-0.50;38.30;;;;;;5014030;28;20249;-72
2022/12/17 15:17:15;;;;;;;5.53;3.10;;;-0.30;37.70;;;;;;5013873;28;20240;-72
2022/12/17 15:19:40;;;;;;;3.88;1.63;;;-0.20;37.30;;;;;;5013672;28;20176;-72
2022/12/17 15:22:14;;;;;;;3.80;1.70;;;-0.20;36.90;;;;;;5013178;28;20170;-72
2022/12/17 15:24:39;;;;;;;3.50;1.40;;;0.00;36.50;;;;;;5006854;28;20209;-72
2022/12/17 15:27:05;;;;;;;3.73;1.57;;;0.00;36.70;;;;;;5013156;28;20289;-71
2022/12/17 15:29:31;;;;;;;3.50;1.50;;;0.00;36.50;;;;;;5013501;28;20173;-72
2022/12/17 15:31:56;;;;;;;3.50;1.70;;;0.00;36.50;;;;;;5011943;28;20185;-72
2022/12/17 15:34:22;;;;;;;3.60;1.50;;;-0.10;36.30;;;;;;5014121;28;20184;-73
2022/12/17 15:36:47;;;;;;;3.33;1.33;;;-0.30;38.00;;;;;;5013481;28;20234;-71
2022/12/17 15:39:13;;;;;;;5.23;2.33;;;-0.20;35.50;;;;;;5012996;28;20542;-71
2022/12/17 15:44:22;;;;;;;3.67;1.55;;;-0.10;35.50;;;;;;5012366;28;20171;-72
2022/12/17 15:46:48;;;;;;;5.97;1.80;;;-0.40;36.10;;;;;;5012838;28;20279;-73
2022/12/17 15:49:14;;;;;;;3.43;1.37;;;-0.60;36.90;;;;;;5012905;28;20178;-71
2022/12/17 15:51:39;;;;;;;3.40;1.37;;;-0.70;37.70;;;;;;5012530;28;20178;-72
2022/12/17 15:54:05;;;;;;;5.03;2.20;;;-1.00;38.20;;;;;;5012592;28;20182;-71
2022/12/17 15:56:30;;;;;;;3.50;1.30;;;-1.10;39.00;;;;;;5012762;28;20193;-72
2022/12/17 15:58:57;;;;;;;3.70;1.63;;;-0.90;38.90;;;;;;5010675;28;20209;-71
2022/12/17 16:01:23;;;;;;;5.53;3.33;;;-1.00;39.00;;;;;;5011241;28;20188;-72
2022/12/17 16:03:48;;;;;;;3.60;1.50;;;-0.80;39.10;;;;;;5012244;28;20177;-72
2022/12/17 16:06:14;;;;;;;3.50;1.30;;;-0.40;38.20;;;;;;5011551;28;20450;-70
2022/12/17 16:08:40;;;;;;;6.90;2.70;;;-0.40;37.70;;;;;;5011936;28;20170;-71
2022/12/17 16:11:08;;;;;;;3.60;1.40;;;-1.10;39.70;;;;;;5011727;28;20182;-71
2022/12/17 16:13:34;;;;;;;4.10;1.80;;;-1.00;40.00;;;;;;5012016;28;20443;-71
2022/12/17 16:15:59;;;;;;;3.90;1.80;;;-0.90;39.00;;;;;;5008587;28;20635;-71
2022/12/17 16:18:25;;;;;;;3.60;1.40;;;-0.60;38.60;;;;;;5012297;28;20452;-72
2022/12/17 16:20:51;;;;;;;3.60;1.75;;;-0.30;37.10;;;;;;5011756;28;20542;-71
2022/12/17 16:23:18;;;;;;;11.07;2.07;;;-0.40;36.70;;;;;;5011518;28;20181;-72
2022/12/17 16:25:43;;;;;;;5.15;2.63;;;-0.60;36.70;;;;;;5009580;28;20188;-72
2022/12/17 16:28:09;;;;;;;3.30;1.10;;;-0.90;37.50;;;;;;5010341;28;20177;-71
2022/12/17 16:30:34;;;;;;;3.57;1.40;;;-1.10;37.80;;;;;;5011656;28;20178;-70
2022/12/17 16:33:00;;;;;;;9.53;3.37;;;-1.50;39.60;;;;;;5011497;28;20173;-71
2022/12/17 16:35:27;;;;;;;4.67;2.43;;;-1.60;40.40;;;;;;5011822;28;20180;-72
2022/12/17 16:37:53;;;;;;;5.47;3.10;;;-1.40;39.70;;;;;;5008980;28;20221;-72
2022/12/17 16:40:19;;;;;;;8.85;3.80;;;-1.20;39.20;;;;;;5011681;28;20182;-71
2022/12/17 16:42:45;;;;;;;4.30;2.10;;;-1.40;39.70;;;;;;5011519;28;20180;-72
2022/12/17 16:45:10;;;;;;;3.53;1.37;;;-1.40;39.70;;;;;;5011688;28;20548;-72
2022/12/17 16:47:36;;;;;;;3.60;1.47;;;-1.30;39.80;;;;;;5009107;28;20223;-71
2022/12/17 16:50:02;;;;;;;4.27;2.17;;;-1.40;39.70;;;;;;5010632;28;20671;-71
2022/12/17 16:52:27;;;;;;;3.72;1.50;;;-1.80;41.30;;;;;;4990501;28;20178;-71
2022/12/17 16:54:53;;;;;;;3.97;1.97;;;-1.80;41.60;;;;;;4991792;28;20185;-72
2022/12/17 16:57:18;;;;;;;3.47;1.33;;;-1.90;41.70;;;;;;4991853;28;20229;-71
2022/12/17 16:59:44;;;;;;;6.03;3.10;;;-2.00;41.60;;;;;;5004043;28;20554;-71
2022/12/17 17:02:14;;;;;;;4.23;1.93;;;-1.60;40.50;;;;;;5011225;28;20180;-71
2022/12/17 17:04:40;;;;;;;4.00;1.88;;;-1.30;39.10;;;;;;5011591;28;20169;-71
2022/12/17 17:07:06;;;;;;;6.88;1.88;;;-1.00;38.20;;;;;;5011305;28;20197;-72
2022/12/17 17:09:31;;;;;;;4.17;2.00;;;-0.80;37.20;;;;;;5009724;28;20196;-71
2022/12/17 17:12:00;;;;;;;6.00;3.07;;;-0.80;38.00;;;;;;5010825;28;20174;-71
2022/12/17 17:14:25;;;;;;;3.40;1.20;;;-0.60;36.70;;;;;;5010061;28;20529;-71
2022/12/17 17:16:51;;;;;;;14.70;3.70;;;-1.40;38.20;;;;;;5011114;28;20216;-72
2022/12/17 17:19:18;;;;;;;3.90;1.60;;;-1.40;39.60;;;;;;5011414;28;20404;-71
2022/12/17 17:21:50;;;;;;;6.07;2.75;;;-1.00;38.10;;;;;;5011298;28;20553;-71
2022/12/17 17:24:19;;;;;;;3.60;1.42;;;-0.90;37.70;;;;;;5010127;28;20165;-72
2022/12/17 17:26:45;;;;;;;4.60;2.28;;;-0.90;37.20;;;;;;5010931;28;20201;-70
2022/12/17 17:29:11;;;;;;;3.60;1.48;;;-1.00;37.50;;;;;;5015185;28;20223;-71
2022/12/17 17:31:37;;;;;;;3.93;1.60;;;-1.10;37.70;;;;;;5014845;28;20548;-71
2022/12/17 17:34:09;;;;;;;4.10;1.90;;;-1.20;37.80;;;;;;5014413;28;20532;-71
2022/12/17 17:36:34;;;;;;;3.80;1.65;;;-1.10;37.50;;;;;;5011264;28;20590;-71
2022/12/17 17:39:01;;;;;;;6.13;3.20;;;-1.20;37.10;;;;;;5013573;28;20200;-70
2022/12/17 17:41:28;;;;;;;3.90;1.63;;;-1.30;38.20;;;;;;5014713;28;20404;-71
2022/12/17 17:43:59;;;;;;;3.60;1.40;;;-1.50;37.40;;;;;;5014721;28;20192;-72
2022/12/17 17:46:26;;;;;;;7.40;2.78;;;-1.60;37.30;;;;;;5012977;28;20196;-71
2022/12/17 17:48:56;;;;;;;3.72;1.52;;;-1.80;37.50;;;;;;5014360;28;20184;-71
2022/12/17 17:51:27;;;;;;;6.45;2.50;;;-1.90;38.00;;;;;;5013780;28;20556;-71
2022/12/17 17:53:54;;;;;;;3.70;1.50;;;-2.10;38.60;;;;;;5014391;28;20641;-71
2022/12/17 17:56:26;;;;;;;4.25;1.88;;;-2.10;38.70;;;;;;5014392;28;20197;-71
2022/12/17 17:58:54;;;;;;;8.30;4.13;;;-2.10;38.40;;;;;;5014291;28;20194;-71
2022/12/17 18:01:27;;;;;;;4.07;1.85;;;-2.40;38.80;;;;;;5011766;28;20268;-71
2022/12/17 18:03:56;;;;;;;5.05;2.42;;;-2.30;38.90;;;;;;5013682;28;20252;-71
2022/12/17 18:06:22;;;;;;;3.60;1.30;;;-1.70;37.60;;;;;;5014029;28;20696;-71
2022/12/17 18:08:47;;;;;;;3.87;1.73;;;-2.20;38.20;;;;;;5014015;28;20185;-71
2022/12/17 18:11:16;;;;;;;3.80;1.30;;;-2.50;38.70;;;;;;5012392;28;20444;-71
2022/12/17 18:13:54;;;;;;;3.70;1.30;;;-2.40;38.80;;;;;;5013977;28;20232;-72
2022/12/17 18:16:31;;;;;;;3.92;1.40;;;-2.30;39.70;;;;;;5014451;28;20198;-71
2022/12/17 18:19:00;;;;;;;4.78;1.92;;;-2.70;39.00;;;;;;5014016;28;20228;-71
2022/12/17 18:21:27;;;;;;;3.80;1.50;;;-2.60;39.90;;;;;;5014329;28;20534;-71
2022/12/17 18:23:55;;;;;;;10.77;2.13;;;-2.10;37.90;;;;;;5012714;28;20178;-72
2022/12/17 18:26:22;;;;;;;4.35;1.98;;;-1.90;37.90;;;;;;5014005;28;20252;-72
2022/12/17 18:28:48;;;;;;;5.55;1.95;;;-1.60;36.40;;;;;;5013825;28;20173;-72
2022/12/17 18:31:17;;;;;;;3.73;1.40;;;-1.30;35.00;;;;;;5013851;28;20263;-71
2022/12/17 18:33:46;;;;;;;5.40;2.85;;;-1.20;34.50;;;;;;5009748;28;20220;-71
2022/12/17 18:36:18;;;;;;;7.85;3.10;;;-1.10;34.90;;;;;;5012537;28;20232;-71
2022/12/17 18:38:44;;;;;;;10.00;4.40;;;-1.00;34.40;;;;;;5012815;28;20197;-72
2022/12/17 18:44:00;;;;;;;4.80;2.15;;;-1.10;35.00;;;;;;5012139;28;20953;-72
2022/12/17 18:46:27;;;;;;;4.22;1.92;;;-1.30;35.50;;;;;;5013689;28;20626;-71
2022/12/17 18:48:56;;;;;;;4.50;2.17;;;-1.40;35.40;;;;;;5013408;28;20173;-71
2022/12/17 18:51:22;;;;;;;3.65;1.35;;;-2.40;39.30;;;;;;5013558;28;20185;-70
2022/12/17 18:53:49;;;;;;;3.90;1.60;;;-2.90;38.70;;;;;;5011723;28;20181;-71
2022/12/17 18:56:14;;;;;;;4.90;1.85;;;-3.20;42.00;;;;;;5013046;28;20295;-71
2022/12/17 18:58:40;;;;;;;5.97;3.43;;;-3.20;40.30;;;;;;5013133;28;20209;-70
2022/12/17 19:01:06;;;;;;;3.80;1.20;;;-2.70;38.80;;;;;;5013323;28;20170;-72
2022/12/17 19:03:32;;;;;;;3.90;1.50;;;-2.40;37.90;;;;;;5013081;28;20226;-71
2022/12/17 19:05:58;;;;;;;4.10;1.60;;;-2.00;36.00;;;;;;5011010;28;20743;-71
2022/12/17 19:08:24;;;;;;;4.30;1.70;;;-2.10;36.10;;;;;;5011679;28;20260;-71
2022/12/17 19:10:49;;;;;;;4.10;1.50;;;-1.90;36.10;;;;;;5012383;28;20327;-71
2022/12/17 19:13:15;;;;;;;3.97;1.33;;;-2.70;38.60;;;;;;5012994;28;20427;-72
2022/12/17 19:15:41;;;;;;;4.60;1.40;;;-3.20;40.00;;;;;;5012906;28;20173;-70
2022/12/17 19:18:06;;;;;;;8.00;4.03;;;-2.90;40.20;;;;;;5011210;28;20205;-71
2022/12/17 19:20:32;;;;;;;9.93;4.27;;;-2.50;38.80;;;;;;5012593;28;20174;-71
2022/12/17 19:22:57;;;;;;;4.63;1.80;;;-2.30;37.80;;;;;;5011079;28;20667;-71
2022/12/17 19:25:23;;;;;;;6.40;2.60;;;-2.30;37.20;;;;;;5012570;28;20188;-70
2022/12/17 19:27:48;;;;;;;4.30;1.30;;;-2.30;37.70;;;;;;5012809;28;20247;-72
2022/12/17 19:30:14;;;;;;;4.20;1.10;;;-0.70;38.00;;;;;;5012585;28;20651;-71
2022/12/17 19:32:39;;;;;;;5.30;2.10;;;-2.80;37.10;;;;;;5010255;28;20182;-71
2022/12/17 19:35:05;;;;;;;4.37;1.30;;;-3.20;38.20;;;;;;5011775;28;20691;-70
2022/12/17 19:37:31;;;;;;;7.23;2.63;;;-2.50;36.60;;;;;;5012317;28;20216;-71
2022/12/17 19:39:56;;;;;;;4.43;1.20;;;-2.20;35.30;;;;;;5012307;28;20177;-71
2022/12/17 19:42:26;;;;;;;4.60;1.50;;;-2.10;34.40;;;;;;5011205;28;20633;-71
2022/12/17 19:44:55;;;;;;;4.47;1.40;;;-3.10;35.70;;;;;;5012164;28;20241;-71
2022/12/17 19:47:22;;;;;;;5.93;3.05;;;-3.50;38.40;;;;;;5012279;28;20204;-71
2022/12/17 19:49:48;;;;;;;6.28;2.47;;;-3.10;37.80;;;;;;5012261;28;20288;-71
2022/12/17 19:52:13;;;;;;;8.40;2.30;;;-3.20;38.20;;;;;;5012165;28;20657;-70
2022/12/17 19:54:39;;;;;;;7.60;2.40;;;-3.70;39.60;;;;;;5009863;28;20189;-71
2022/12/17 19:57:05;;;;;;;10.83;4.50;;;-4.30;42.30;;;;;;5012397;28;20200;-71
2022/12/17 19:59:30;;;;;;;7.70;3.23;;;-3.80;41.00;;;;;;5012327;28;20235;-71
2022/12/17 20:01:56;;;;;;;9.20;4.23;;;-3.40;39.50;;;;;;5011634;28;20169;-70
2022/12/17 20:04:21;;;;;;;4.97;1.57;;;-3.20;38.60;;;;;;5010524;28;20181;-71
2022/12/17 20:06:47;;;;;;;5.20;1.80;;;-3.00;37.50;;;;;;5010849;28;20201;-71
2022/12/17 20:09:13;;;;;;;9.47;5.20;;;-3.70;37.70;;;;;;5012283;28;20173;-71
2022/12/17 20:11:39;;;;;;;8.87;3.33;;;-4.40;41.10;;;;;;5011962;28;20181;-71
2022/12/17 20:14:12;;;;;;;6.57;2.83;;;-4.40;42.30;;;;;;5011367;28;20919;-71
2022/12/17 20:16:43;;;;;;;5.35;1.90;;;-4.30;42.50;;;;;;5011153;28;20448;-69
2022/12/17 20:19:18;;;;;;;6.30;2.30;;;-3.50;39.50;;;;;;5011803;28;20232;-69
2022/12/17 20:21:46;;;;;;;24.20;3.80;;;-3.00;37.70;;;;;;5011754;28;20205;-68
2022/12/17 20:24:12;;;;;;;8.05;3.42;;;-2.90;36.80;;;;;;5010045;28;20177;-72
2022/12/17 20:26:38;;;;;;;7.73;2.57;;;-2.90;36.40;;;;;;5011401;28;20251;-72
2022/12/17 20:29:04;;;;;;;5.10;1.63;;;-3.00;36.70;;;;;;5011773;28;20478;-69
2022/12/17 20:31:30;;;;;;;9.43;1.83;;;-3.10;37.00;;;;;;5011776;28;20188;-68
2022/12/17 20:33:57;;;;;;;5.85;2.05;;;-3.20;37.00;;;;;;5010730;28;20264;-69
2022/12/17 20:36:23;;;;;;;5.95;2.53;;;-3.20;37.10;;;;;;5010260;28;20225;-69
2022/12/17 20:38:49;;;;;;;5.00;1.45;;;-3.30;37.20;;;;;;5011667;28;20213;-69
2022/12/17 20:41:18;;;;;;;9.10;2.10;;;-3.20;36.90;;;;;;5011666;28;20278;-72
2022/12/17 20:43:45;;;;;;;5.35;1.65;;;-3.50;37.50;;;;;;5012004;28;20173;-72
2022/12/17 20:46:12;;;;;;;7.25;3.15;;;-3.50;37.20;;;;;;5009762;28;20763;-72
2022/12/17 20:48:39;;;;;;;5.30;1.65;;;-3.60;37.30;;;;;;5011273;28;20200;-71
2022/12/17 20:51:10;;;;;;;9.32;3.15;;;-3.80;37.60;;;;;;5011607;28;20700;-72
2022/12/17 20:53:36;;;;;;;5.20;1.50;;;-4.00;37.90;;;;;;5011595;28;20161;-71
2022/12/17 20:56:10;;;;;;;5.00;1.30;;;-4.00;38.50;;;;;;5009767;28;20212;-72
2022/12/17 20:58:38;;;;;;;4.90;1.27;;;-4.00;38.20;;;;;;5011067;28;20224;-72
2022/12/17 21:01:19;;;;;;;5.25;1.55;;;-3.90;38.10;;;;;;5011337;28;20657;-71
2022/12/17 21:03:45;;;;;;;6.60;2.45;;;-3.90;37.60;;;;;;5015884;28;20559;-72
2022/12/17 21:06:17;;;;;;;10.18;5.47;;;-4.00;37.50;;;;;;5014246;28;20259;-71
2022/12/17 21:08:44;;;;;;;5.13;1.25;;;-4.00;37.50;;;;;;5009688;28;20161;-72
2022/12/17 21:11:10;;;;;;;5.50;1.40;;;-4.20;37.70;;;;;;5015590;28;20177;-71
2022/12/17 21:13:36;;;;;;;5.20;1.30;;;-4.20;37.80;;;;;;5033293;28;20209;-69
2022/12/17 21:16:06;;;;;;;5.60;1.60;;;-4.70;38.90;;;;;;5020298;28;20209;-71
2022/12/17 21:18:32;;;;;;;5.20;1.20;;;-5.70;42.90;;;;;;5013457;28;20203;-71
2022/12/17 21:21:01;;;;;;;5.30;1.40;;;-4.90;41.60;;;;;;5014609;28;20220;-71
2022/12/17 21:23:27;;;;;;;7.38;3.05;;;-4.40;38.60;;;;;;5014206;28;20193;-71
2022/12/17 21:26:04;;;;;;;6.00;1.67;;;-4.20;37.30;;;;;;5015021;28;20193;-71
2022/12/17 21:28:30;;;;;;;5.25;1.38;;;-4.50;37.00;;;;;;5008567;28;20559;-71
2022/12/17 21:30:56;;;;;;;6.80;2.40;;;-4.80;37.40;;;;;;5008615;28;20228;-69
2022/12/17 21:33:22;;;;;;;6.03;2.23;;;-4.40;37.10;;;;;;5009523;28;20189;-71
2022/12/17 21:35:48;;;;;;;8.57;4.20;;;-4.70;36.80;;;;;;5005083;28;20194;-74
2022/12/17 21:38:14;;;;;;;6.33;2.27;;;-4.60;37.10;;;;;;5011006;28;20470;-71
2022/12/17 21:40:40;;;;;;;5.33;1.30;;;-4.60;37.60;;;;;;5013125;28;20828;-69
2022/12/17 21:43:06;;;;;;;5.30;1.27;;;-4.80;37.70;;;;;;5012679;28;20432;-72
2022/12/17 21:45:41;;;;;;;5.38;1.40;;;-5.80;41.20;;;;;;5013590;28;20244;-72
2022/12/17 21:48:09;;;;;;;7.38;3.08;;;-5.80;42.10;;;;;;5011349;28;20181;-73
2022/12/17 21:50:39;;;;;;;5.60;1.70;;;-5.80;42.60;;;;;;5013610;28;20196;-72
2022/12/17 21:53:05;;;;;;;5.40;1.63;;;-5.30;39.30;;;;;;5013280;28;20185;-71
2022/12/17 21:55:30;;;;;;;5.50;1.50;;;-6.00;42.90;;;;;;5004539;28;20193;-72
2022/12/17 21:57:59;;;;;;;5.30;1.37;;;-5.50;41.30;;;;;;5006803;28;20205;-73
2022/12/17 22:00:25;;;;;;;5.28;1.50;;;-5.30;40.40;;;;;;5012992;28;20320;-73
2022/12/17 22:02:50;;;;;;;5.80;1.90;;;-4.70;38.60;;;;;;5011936;28;20824;-72
2022/12/17 22:05:16;;;;;;;5.40;1.57;;;-5.10;38.60;;;;;;5013529;28;20181;-73
2022/12/17 22:07:41;;;;;;;5.80;2.00;;;-4.90;38.70;;;;;;5012346;28;20205;-73
2022/12/17 22:10:08;;;;;;;5.40;1.50;;;-5.60;39.70;;;;;;5014095;28;20181;-71
2022/12/17 22:15:18;;;;;;;5.30;1.63;;;-4.90;39.30;;;;;;5010100;28;20254;-70
2022/12/17 22:17:43;;;;;;;9.17;3.07;;;-4.60;36.90;;;;;;5010763;28;20303;-73
2022/12/17 22:20:10;;;;;;;5.20;1.30;;;-4.70;37.90;;;;;;5012463;28;20177;-73
2022/12/17 22:22:36;;;;;;;6.95;2.50;;;-4.40;37.10;;;;;;5015527;28;20177;-72
2022/12/17 22:25:02;;;;;;;5.60;1.80;;;-3.90;35.80;;;;;;5012360;28;20586;-73
2022/12/17 22:27:29;;;;;;;5.20;1.30;;;-4.30;34.90;;;;;;5015932;28;20688;-71
2022/12/17 22:35:23;;;;;;;6.25;2.05;;;-4.90;37.20;;;;;;5014761;28;20192;-73
2022/12/17 22:37:48;;;;;;;5.30;1.30;;;-4.60;36.90;;;;;;5009223;28;20209;-72
2022/12/17 22:40:14;;;;;;;6.07;2.23;;;-4.50;35.80;;;;;;5010994;28;20221;-71
2022/12/17 22:45:23;;;;;;;9.10;2.55;;;-4.70;35.30;;;;;;5022739;28;20652;-72
2022/12/17 22:47:49;;;;;;;5.40;1.93;;;-5.10;36.50;;;;;;5018354;28;20296;-72
2022/12/17 22:50:14;;;;;;;5.23;1.30;;;-4.70;36.00;;;;;;5017162;28;20710;-71
2022/12/17 22:52:40;;;;;;;5.70;1.80;;;-4.50;35.10;;;;;;5009904;28;20185;-71
2022/12/17 22:55:06;;;;;;;10.20;3.10;;;-4.30;34.50;;;;;;5019108;28;20716;-72
2022/12/17 22:57:32;;;;;;;5.13;1.20;;;-4.10;33.40;;;;;;5017204;28;20217;-73
2022/12/17 22:59:57;;;;;;;6.00;2.03;;;-4.00;33.90;;;;;;5018871;28;20184;-71
2022/12/17 23:02:23;;;;;;;5.60;1.80;;;-4.20;34.10;;;;;;5013522;28;20425;-72
2022/12/17 23:04:49;;;;;;;5.20;1.40;;;-4.20;33.40;;;;;;5016039;28;20318;-72
2022/12/17 23:07:14;;;;;;;5.40;1.50;;;-4.30;33.20;;;;;;5011403;28;20212;-73
2022/12/17 23:09:40;;;;;;;5.40;1.60;;;-5.40;36.50;;;;;;5012355;28;20711;-73
2022/12/17 23:14:50;;;;;;;5.40;1.50;;;-4.90;34.90;;;;;;5013408;28;20188;-72
2022/12/17 23:17:15;;;;;;;6.07;2.27;;;-4.50;34.50;;;;;;5019560;28;20201;-72
2022/12/17 23:19:41;;;;;;;9.10;3.00;;;-4.40;33.60;;;;;;5015621;28;20252;-73
2022/12/17 23:22:06;;;;;;;5.13;1.23;;;-4.40;33.00;;;;;;5014971;28;20189;-72
2022/12/17 23:24:32;;;;;;;5.60;1.67;;;-4.60;33.40;;;;;;5013161;28;20653;-73
2022/12/17 23:26:58;;;;;;;5.30;1.30;;;-4.90;33.90;;;;;;5019571;28;20198;-72
2022/12/17 23:29:26;;;;;;;7.40;2.70;;;-5.20;34.60;;;;;;5018944;28;20201;-72
2022/12/17 23:31:51;;;;;;;5.20;1.30;;;-5.10;35.20;;;;;;5020482;28;20181;-72
2022/12/17 23:34:17;;;;;;;5.70;1.90;;;-5.90;35.80;;;;;;5019100;28;20188;-73
2022/12/17 23:36:42;;;;;;;6.00;2.10;;;-6.00;35.70;;;;;;5012495;28;20209;-72
2022/12/17 23:39:08;;;;;;;10.70;5.27;;;-6.50;37.30;;;;;;5020126;28;20271;-72
2022/12/17 23:41:34;;;;;;;5.33;1.40;;;-6.30;36.60;;;;;;5019993;28;20177;-71
2022/12/17 23:44:00;;;;;;;8.70;2.90;;;-5.90;35.80;;;;;;5020999;28;20185;-72
2022/12/17 23:46:27;;;;;;;5.18;1.35;;;-6.20;35.50;;;;;;5019964;28;20227;-73
2022/12/17 23:48:53;;;;;;;9.60;2.25;;;-6.50;35.90;;;;;;5022371;28;20212;-73
2022/12/17 23:51:21;;;;;;;10.07;3.30;;;-6.60;36.40;;;;;;5023247;28;20584;-72
2022/12/17 23:53:47;;;;;;;5.90;2.45;;;-6.50;36.40;;;;;;5021583;28;20196;-73
2022/12/17 23:56:19;;;;;;;5.40;1.70;;;-6.50;36.40;;;;;;5021319;28;20287;-71
2022/12/17 23:58:45;;;;;;;5.20;1.30;;;-7.00;37.10;;;;;;5020530;28;20264;-70
